Pass Christian, MS (39571)

1:16 PM CST on December 02, 2016 (GMT -0600)
PC Pet Care | | Change Station

Elev 14 ft 30.31 °N, 89.26 °W | Updated 1 minute ago

Partly Cloudy
Partly Cloudy
63.6 °F
Feels Like 63.6 °F
N
7.0
Wind Variable Wind from East
Gusts 7.0 mph

Today
High -- | Low -- °F
--% Chance of Precip.
Yesterday
High -- | Low -- °F
Precip. -- in
Pressure 30.18 in
Visibility 10.0 miles
Clouds Few 9500 ft
Dew Point 40 °F
Humidity 42%
Rainfall 0.00 in
Snow Depth Not available.
6:37 AM 4:56 PM
Waxing Crescent, 10% visible
METAR KGPT 021853Z 07011G19KT 10SM FEW095 19/00 A3018 RMK AO2 SLP220 T01890000
Pressure 30.18 in
Visibility 10.0 miles
Clouds Few 9500 ft
Dew Point 40 °F
Humidity 42%
Rainfall 0.00 in
Snow Depth Not available.
6:37 AM 4:56 PM
Waxing Crescent, 10% visible
METAR KGPT 021853Z 07011G19KT 10SM FEW095 19/00 A3018 RMK AO2 SLP220 T01890000

10-Day Weather Forecast

Almanac

Astronomy

Dec. 02, 2016 Rise Set
Actual Time
Civil Twilight
Nautical Twilight
Astronomical Twilight
Moon
Length of Visible Light
Length of Day
Tomorrow will be .
, % of the Moon is Illuminated

Today's Extremes

State Highs State Lows

Community

WunderPhotos

Upload Photos

1,955,332 photos uploaded!

WunderBlog® & News

Nearby

Air Quality

  Air Quality AQ Index Pollutant
Not available.

Snow Depth

Station Depth Elevation

Earthquake Activity

City Distance Mag. Time & Date
Minimum magnitude displayed is 2.5.

Coastal Water Temperatures

Place Temperature

Stations

Nearby Weather Stations

Station Location Temp. Windchill Dew Point Humidity Wind Precip. Elev Updated Type
                   

Watches & Warnings

There are currently no watches in effect.